TimePST,TemperatureF,Dew PointF,Humidity,Sea Level PressureIn,VisibilityMPH,Wind Direction,Wind SpeedMPH,Gust SpeedMPH,PrecipitationIn,Events,Conditions,WindDirDegrees,DateUTC
12:31 AM,51.8,48.2,88,30.04,5.0,Calm,Calm,-,0.04,Rain,Light Rain,0,2012-12-05 08:31:00
12:53 AM,50.0,48.9,96,30.05,10.0,Calm,Calm,-,0.05,,Overcast,0,2012-12-05 08:53:00
1:18 AM,50.0,48.2,94,30.06,10.0,Calm,Calm,-,0.00,,Overcast,0,2012-12-05 09:18:00
1:53 AM,50.0,48.0,93,30.08,10.0,Calm,Calm,-,0.01,Rain,Light Rain,0,2012-12-05 09:53:00
2:05 AM,50.0,48.2,94,30.09,10.0,Calm,Calm,-,0.00,Rain,Light Rain,0,2012-12-05 10:05:00
2:53 AM,48.9,45.0,86,30.12,9.0,NNW,5.8,-,0.00,Rain,Light Rain,340,2012-12-05 10:53:00
3:12 AM,48.2,44.6,87,30.12,10.0,NNE,3.5,-,0.01,Rain,Light Rain,30,2012-12-05 11:12:00
3:53 AM,48.0,45.0,89,30.13,10.0,North,3.5,-,0.01,,Overcast,360,2012-12-05 11:53:00
4:53 AM,48.0,46.0,93,30.15,8.0,Calm,Calm,-,0.00,,Overcast,0,2012-12-05 12:53:00
6:53 AM,46.9,45.0,93,30.18,10.0,Calm,Calm,-,N/A,,Overcast,0,2012-12-05 14:53:00
7:53 AM,46.9,44.1,90,30.18,10.0,Calm,Calm,-,N/A,,Overcast,0,2012-12-05 15:53:00
8:01 AM,46.4,44.6,93,30.18,10.0,Calm,Calm,-,N/A,,Overcast,0,2012-12-05 16:01:00
8:35 AM,46.4,44.6,93,30.19,10.0,NNE,3.5,-,N/A,,Overcast,30,2012-12-05 16:35:00
8:48 AM,46.4,44.6,93,30.19,9.0,North,3.5,-,N/A,,Mostly Cloudy,360,2012-12-05 16:48:00
8:53 AM,46.9,45.0,93,30.20,10.0,North,4.6,-,N/A,,Mostly Cloudy,360,2012-12-05 16:53:00
9:53 AM,48.0,44.1,86,30.22,10.0,North,6.9,-,N/A,,Mostly Cloudy,10,2012-12-05 17:53:00
10:14 AM,48.2,44.6,87,30.22,10.0,NNE,3.5,-,N/A,,Scattered Clouds,20,2012-12-05 18:14:00
10:24 AM,48.2,44.6,87,30.22,10.0,North,5.8,-,N/A,,Mostly Cloudy,360,2012-12-05 18:24:00
10:32 AM,48.2,44.6,87,30.22,10.0,North,4.6,-,N/A,,Scattered Clouds,360,2012-12-05 18:32:00
10:53 AM,48.9,44.1,83,30.23,10.0,North,3.5,-,N/A,,Scattered Clouds,10,2012-12-05 18:53:00
11:40 AM,51.8,42.8,71,30.22,10.0,Calm,Calm,-,N/A,,Mostly Cloudy,0,2012-12-05 19:40:00
11:53 AM,50.0,44.1,80,30.23,10.0,Calm,Calm,-,0.00,Rain,Light Rain,0,2012-12-05 19:53:00
12:15 PM,50.0,44.6,82,30.22,10.0,North,5.8,-,0.00,,Overcast,10,2012-12-05 20:15:00
12:53 PM,50.0,44.1,80,30.22,10.0,North,6.9,-,0.00,,Overcast,10,2012-12-05 20:53:00
1:53 PM,51.1,43.0,74,30.22,10.0,North,6.9,-,N/A,,Overcast,350,2012-12-05 21:53:00
2:53 PM,50.0,41.0,71,30.22,10.0,North,10.4,-,N/A,,Overcast,10,2012-12-05 22:53:00
4:53 PM,48.9,41.0,74,30.22,10.0,North,3.5,-,N/A,,Overcast,350,2012-12-06 00:53:00
5:53 PM,48.0,39.9,74,30.23,10.0,NNW,3.5,-,N/A,,Overcast,340,2012-12-06 01:53:00
6:53 PM,46.9,41.0,80,30.23,10.0,North,3.5,-,N/A,,Overcast,350,2012-12-06 02:53:00
7:53 PM,46.9,39.9,77,30.25,10.0,Calm,Calm,-,N/A,,Overcast,0,2012-12-06 03:53:00
8:53 PM,46.0,41.0,83,30.25,10.0,Calm,Calm,-,N/A,,Overcast,0,2012-12-06 04:53:00
9:53 PM,46.0,42.1,86,30.26,10.0,Calm,Calm,-,0.00,Rain,Light Rain,0,2012-12-06 05:53:00
10:53 PM,44.1,42.1,93,30.27,10.0,Calm,Calm,-,0.00,,Mostly Cloudy,0,2012-12-06 06:53:00
11:53 PM,42.1,39.0,89,30.27,10.0,Calm,Calm,-,N/A,,Mostly Cloudy,0,2012-12-06 07:53:00